sensor_id;sensor_type;location;lat;lon;timestamp;pressure;altitude;pressure_sealevel;temperature;humidity
18819;BME280;9537;45.594;9.294;2022-11-20T00:00:40;98912.91;;;5.81;81.33
18819;BME280;9537;45.594;9.294;2022-11-20T00:01:41;98912.41;;;5.85;81.22
18819;BME280;9537;45.594;9.294;2022-11-20T00:02:43;98915.69;;;5.87;81.34
18819;BME280;9537;45.594;9.294;2022-11-20T00:03:45;98917.66;;;5.85;80.67
18819;BME280;9537;45.594;9.294;2022-11-20T00:04:47;98911.13;;;5.90;81.52
18819;BME280;9537;45.594;9.294;2022-11-20T00:05:48;98923.91;;;5.93;81.47
18819;BME280;9537;45.594;9.294;2022-11-20T00:06:50;98918.06;;;5.99;80.90
18819;BME280;9537;45.594;9.294;2022-11-20T00:07:52;98922.16;;;6.01;81.02
18819;BME280;9537;45.594;9.294;2022-11-20T00:08:55;98922.66;;;6.05;81.04
18819;BME280;9537;45.594;9.294;2022-11-20T00:09:57;98920.50;;;6.00;80.82
18819;BME280;9537;45.594;9.294;2022-11-20T00:11:02;98919.69;;;6.00;81.28
18819;BME280;9537;45.594;9.294;2022-11-20T00:12:05;98923.28;;;5.99;81.50
18819;BME280;9537;45.594;9.294;2022-11-20T00:13:07;98918.88;;;5.99;80.95
18819;BME280;9537;45.594;9.294;2022-11-20T00:14:09;98922.47;;;5.98;81.29
18819;BME280;9537;45.594;9.294;2022-11-20T00:15:10;98921.63;;;5.98;80.87
18819;BME280;9537;45.594;9.294;2022-11-20T00:16:15;98925.44;;;5.95;80.31
18819;BME280;9537;45.594;9.294;2022-11-20T00:17:16;98927.66;;;5.90;80.24
18819;BME280;9537;45.594;9.294;2022-11-20T00:18:18;98927.50;;;5.92;79.72
18819;BME280;9537;45.594;9.294;2022-11-20T00:19:19;98925.19;;;5.88;79.21
18819;BME280;9537;45.594;9.294;2022-11-20T00:20:21;98930.63;;;5.87;79.11
18819;BME280;9537;45.594;9.294;2022-11-20T00:21:24;98926.84;;;5.81;79.89
18819;BME280;9537;45.594;9.294;2022-11-20T00:22:26;98926.16;;;5.79;79.42
18819;BME280;9537;45.594;9.294;2022-11-20T00:23:29;98933.84;;;5.73;79.75
18819;BME280;9537;45.594;9.294;2022-11-20T00:24:31;98942.19;;;5.68;80.15
18819;BME280;9537;45.594;9.294;2022-11-20T00:25:33;98934.63;;;5.65;80.08
18819;BME280;9537;45.594;9.294;2022-11-20T00:26:35;98935.63;;;5.64;80.22
18819;BME280;9537;45.594;9.294;2022-11-20T00:27:37;98940.34;;;5.60;80.23
18819;BME280;9537;45.594;9.294;2022-11-20T00:28:38;98942.50;;;5.65;79.95
18819;BME280;9537;45.594;9.294;2022-11-20T00:29:40;98941.50;;;5.66;79.95
18819;BME280;9537;45.594;9.294;2022-11-20T00:30:41;98939.06;;;5.64;80.01
18819;BME280;9537;45.594;9.294;2022-11-20T00:31:43;98943.81;;;5.69;80.23
18819;BME280;9537;45.594;9.294;2022-11-20T00:32:44;98936.25;;;5.66;79.79
18819;BME280;9537;45.594;9.294;2022-11-20T00:33:46;98940.50;;;5.59;79.40
18819;BME280;9537;45.594;9.294;2022-11-20T00:34:47;98945.91;;;5.57;80.49
18819;BME280;9537;45.594;9.294;2022-11-20T00:35:49;98938.84;;;5.58;80.33
18819;BME280;9537;45.594;9.294;2022-11-20T00:36:50;98944.25;;;5.56;80.53
18819;BME280;9537;45.594;9.294;2022-11-20T00:37:52;98944.59;;;5.53;79.54
18819;BME280;9537;45.594;9.294;2022-11-20T00:38:55;98947.66;;;5.49;80.17
18819;BME280;9537;45.594;9.294;2022-11-20T00:39:58;98946.19;;;5.46;80.50
18819;BME280;9537;45.594;9.294;2022-11-20T00:41:01;98947.31;;;5.43;80.65
18819;BME280;9537;45.594;9.294;2022-11-20T00:42:03;98953.53;;;5.42;79.93
18819;BME280;9537;45.594;9.294;2022-11-20T00:43:04;98955.16;;;5.43;80.39
18819;BME280;9537;45.594;9.294;2022-11-20T00:44:06;98955.03;;;5.45;80.37
18819;BME280;9537;45.594;9.294;2022-11-20T00:45:07;98951.22;;;5.39;80.55
18819;BME280;9537;45.594;9.294;2022-11-20T00:46:13;98957.13;;;5.41;80.36
18819;BME280;9537;45.594;9.294;2022-11-20T00:47:14;98957.47;;;5.38;80.46
18819;BME280;9537;45.594;9.294;2022-11-20T00:48:16;98962.69;;;5.38;80.46
18819;BME280;9537;45.594;9.294;2022-11-20T00:49:17;98960.72;;;5.40;80.29
18819;BME280;9537;45.594;9.294;2022-11-20T00:50:19;98963.34;;;5.40;79.71
18819;BME280;9537;45.594;9.294;2022-11-20T00:51:21;98967.25;;;5.36;80.53
18819;BME280;9537;45.594;9.294;2022-11-20T00:52:24;98956.63;;;5.38;80.85
18819;BME280;9537;45.594;9.294;2022-11-20T00:53:25;98962.38;;;5.41;80.38
18819;BME280;9537;45.594;9.294;2022-11-20T00:54:29;98969.91;;;5.45;80.23
18819;BME280;9537;45.594;9.294;2022-11-20T00:55:30;98968.25;;;5.43;80.41
18819;BME280;9537;45.594;9.294;2022-11-20T00:56:31;98970.22;;;5.41;80.41
18819;BME280;9537;45.594;9.294;2022-11-20T00:57:33;98963.66;;;5.37;81.00
18819;BME280;9537;45.594;9.294;2022-11-20T00:58:36;98967.63;;;5.41;80.82
18819;BME280;9537;45.594;9.294;2022-11-20T00:59:39;98973.66;;;5.42;80.50
18819;BME280;9537;45.594;9.294;2022-11-20T01:00:40;98969.25;;;5.42;80.41
18819;BME280;9537;45.594;9.294;2022-11-20T01:01:42;98966.31;;;5.46;80.13
18819;BME280;9537;45.594;9.294;2022-11-20T01:02:44;98972.84;;;5.41;79.76
18819;BME280;9537;45.594;9.294;2022-11-20T01:03:46;98971.50;;;5.37;80.13
18819;BME280;9537;45.594;9.294;2022-11-20T01:04:48;98970.56;;;5.38;79.96
18819;BME280;9537;45.594;9.294;2022-11-20T01:05:49;98968.56;;;5.40;79.45
18819;BME280;9537;45.594;9.294;2022-11-20T01:06:52;98968.06;;;5.37;79.46
18819;BME280;9537;45.594;9.294;2022-11-20T01:07:53;98971.81;;;5.34;80.22
18819;BME280;9537;45.594;9.294;2022-11-20T01:08:57;98966.44;;;5.36;80.19
18819;BME280;9537;45.594;9.294;2022-11-20T01:09:59;98966.94;;;5.39;79.45
18819;BME280;9537;45.594;9.294;2022-11-20T01:11:04;98963.19;;;5.42;79.82
18819;BME280;9537;45.594;9.294;2022-11-20T01:12:05;98962.53;;;5.40;79.36
18819;BME280;9537;45.594;9.294;2022-11-20T01:13:07;98968.44;;;5.42;79.39
18819;BME280;9537;45.594;9.294;2022-11-20T01:14:38;98970.69;;;5.37;79.15
18819;BME280;9537;45.594;9.294;2022-11-20T01:15:40;98975.44;;;5.33;80.00
18819;BME280;9537;45.594;9.294;2022-11-20T01:16:43;98965.78;;;5.34;79.23
18819;BME280;9537;45.594;9.294;2022-11-20T01:17:46;98969.38;;;5.33;79.15
18819;BME280;9537;45.594;9.294;2022-11-20T01:18:49;98977.22;;;5.33;79.27
18819;BME280;9537;45.594;9.294;2022-11-20T01:19:51;98964.94;;;5.33;79.17
18819;BME280;9537;45.594;9.294;2022-11-20T01:20:52;98979.03;;;5.32;79.11
18819;BME280;9537;45.594;9.294;2022-11-20T01:21:54;98978.19;;;5.32;79.26
18819;BME280;9537;45.594;9.294;2022-11-20T01:22:55;98977.06;;;5.34;79.28
18819;BME280;9537;45.594;9.294;2022-11-20T01:23:58;98975.44;;;5.33;79.00
18819;BME280;9537;45.594;9.294;2022-11-20T01:25:00;98978.88;;;5.34;79.11
18819;BME280;9537;45.594;9.294;2022-11-20T01:26:03;98978.72;;;5.35;79.54
18819;BME280;9537;45.594;9.294;2022-11-20T01:27:05;98988.53;;;5.33;79.06
18819;BME280;9537;45.594;9.294;2022-11-20T01:28:07;98982.59;;;5.31;78.90
18819;BME280;9537;45.594;9.294;2022-11-20T01:29:11;98979.63;;;5.26;78.69
18819;BME280;9537;45.594;9.294;2022-11-20T01:30:14;98980.94;;;5.22;79.30
18819;BME280;9537;45.594;9.294;2022-11-20T01:31:16;98970.09;;;5.17;79.89
18819;BME280;9537;45.594;9.294;2022-11-20T01:32:19;98977.00;;;5.18;79.43
18819;BME280;9537;45.594;9.294;2022-11-20T01:33:20;98975.31;;;5.17;79.65
18819;BME280;9537;45.594;9.294;2022-11-20T01:34:22;98980.88;;;5.14;80.10
18819;BME280;9537;45.594;9.294;2022-11-20T01:35:23;98976.09;;;5.09;79.79
18819;BME280;9537;45.594;9.294;2022-11-20T01:36:29;98977.59;;;5.12;79.07
18819;BME280;9537;45.594;9.294;2022-11-20T01:37:30;98972.00;;;5.07;79.05
18819;BME280;9537;45.594;9.294;2022-11-20T01:38:32;98977.19;;;4.99;80.04
18819;BME280;9537;45.594;9.294;2022-11-20T01:39:33;98973.59;;;5.00;79.56
18819;BME280;9537;45.594;9.294;2022-11-20T01:40:36;98980.63;;;4.99;79.67
18819;BME280;9537;45.594;9.294;2022-11-20T01:41:37;98980.63;;;4.99;80.07
18819;BME280;9537;45.594;9.294;2022-11-20T01:43:09;98980.44;;;5.01;80.45
18819;BME280;9537;45.594;9.294;2022-11-20T01:44:45;98975.53;;;4.97;80.21
18819;BME280;9537;45.594;9.294;2022-11-20T01:46:05;98973.09;;;4.96;80.62
18819;BME280;9537;45.594;9.294;2022-11-20T01:47:09;98988.72;;;4.88;80.72
18819;BME280;9537;45.594;9.294;2022-11-20T01:48:14;98985.72;;;4.83;80.98
18819;BME280;9537;45.594;9.294;2022-11-20T01:49:20;98989.66;;;4.79;81.21
18819;BME280;9537;45.594;9.294;2022-11-20T01:50:24;98984.16;;;4.72;81.49
18819;BME280;9537;45.594;9.294;2022-11-20T01:51:32;98989.47;;;4.80;81.42
18819;BME280;9537;45.594;9.294;2022-11-20T01:52:37;98986.72;;;4.82;81.13
18819;BME280;9537;45.594;9.294;2022-11-20T01:53:41;98984.78;;;4.84;80.81
18819;BME280;9537;45.594;9.294;2022-11-20T01:54:45;98992.09;;;4.80;80.64
18819;BME280;9537;45.594;9.294;2022-11-20T01:55:52;98991.28;;;4.80;81.26
18819;BME280;9537;45.594;9.294;2022-11-20T01:56:57;98994.88;;;4.79;80.86
18819;BME280;9537;45.594;9.294;2022-11-20T01:58:01;98997.50;;;4.79;81.50
18819;BME280;9537;45.594;9.294;2022-11-20T01:59:05;98995.25;;;4.84;81.29
18819;BME280;9537;45.594;9.294;2022-11-20T02:00:12;98995.31;;;4.74;81.22
18819;BME280;9537;45.594;9.294;2022-11-20T02:01:14;98988.28;;;4.74;81.77
18819;BME280;9537;45.594;9.294;2022-11-20T02:02:16;98992.88;;;4.72;81.46
18819;BME280;9537;45.594;9.294;2022-11-20T02:03:19;98992.03;;;4.72;81.59
18819;BME280;9537;45.594;9.294;2022-11-20T02:04:22;98996.06;;;4.66;82.16
18819;BME280;9537;45.594;9.294;2022-11-20T02:05:28;98992.19;;;4.70;82.19
18819;BME280;9537;45.594;9.294;2022-11-20T02:06:35;98989.66;;;4.79;81.63
18819;BME280;9537;45.594;9.294;2022-11-20T02:07:40;98991.13;;;4.81;81.70
18819;BME280;9537;45.594;9.294;2022-11-20T02:08:42;98998.69;;;4.84;81.45
18819;BME280;9537;45.594;9.294;2022-11-20T02:09:43;98989.16;;;4.83;81.70
18819;BME280;9537;45.594;9.294;2022-11-20T02:10:45;98989.16;;;4.83;81.21
18819;BME280;9537;45.594;9.294;2022-11-20T02:11:48;98990.97;;;4.83;81.02
18819;BME280;9537;45.594;9.294;2022-11-20T02:12:49;98988.34;;;4.83;81.33
18819;BME280;9537;45.594;9.294;2022-11-20T02:14:10;98992.41;;;4.77;81.48
18819;BME280;9537;45.594;9.294;2022-11-20T02:15:12;98995.19;;;4.76;81.41
18819;BME280;9537;45.594;9.294;2022-11-20T02:16:20;98991.56;;;4.77;81.35
18819;BME280;9537;45.594;9.294;2022-11-20T02:17:23;98993.38;;;4.76;81.08
18819;BME280;9537;45.594;9.294;2022-11-20T02:18:24;98996.97;;;4.75;81.47
18819;BME280;9537;45.594;9.294;2022-11-20T02:19:29;98988.16;;;4.76;81.01
18819;BME280;9537;45.594;9.294;2022-11-20T02:20:31;98991.75;;;4.75;80.73
18819;BME280;9537;45.594;9.294;2022-11-20T02:21:37;98996.13;;;4.74;80.75
18819;BME280;9537;45.594;9.294;2022-11-20T02:22:48;98992.56;;;4.76;80.91
18819;BME280;9537;45.594;9.294;2022-11-20T02:24:02;98994.06;;;4.78;81.30
18819;BME280;9537;45.594;9.294;2022-11-20T02:25:04;98985.53;;;4.76;81.34
18819;BME280;9537;45.594;9.294;2022-11-20T02:26:11;98991.56;;;4.77;81.57
18819;BME280;9537;45.594;9.294;2022-11-20T02:27:15;98986.84;;;4.80;80.97
18819;BME280;9537;45.594;9.294;2022-11-20T02:28:18;98987.53;;;4.82;81.49
18819;BME280;9537;45.594;9.294;2022-11-20T02:29:24;98991.78;;;4.83;81.26
18819;BME280;9537;45.594;9.294;2022-11-20T02:30:27;98990.28;;;4.81;80.88
18819;BME280;9537;45.594;9.294;2022-11-20T02:31:28;98992.41;;;4.77;80.90
18819;BME280;9537;45.594;9.294;2022-11-20T02:32:32;98990.09;;;4.74;80.98
18819;BME280;9537;45.594;9.294;2022-11-20T02:33:34;98998.63;;;4.76;80.61
18819;BME280;9537;45.594;9.294;2022-11-20T02:34:36;98995.09;;;4.67;80.58
18819;BME280;9537;45.594;9.294;2022-11-20T02:35:42;98993.75;;;4.63;80.47
18819;BME280;9537;45.594;9.294;2022-11-20T02:36:46;98997.03;;;4.65;79.96
18819;BME280;9537;45.594;9.294;2022-11-20T02:37:50;98992.13;;;4.62;80.11
18819;BME280;9537;45.594;9.294;2022-11-20T02:38:52;98995.19;;;4.58;79.93
18819;BME280;9537;45.594;9.294;2022-11-20T02:39:56;98994.34;;;4.57;79.99
18819;BME280;9537;45.594;9.294;2022-11-20T02:40:57;98995.34;;;4.56;79.83
18819;BME280;9537;45.594;9.294;2022-11-20T02:42:01;98998.41;;;4.51;80.22
18819;BME280;9537;45.594;9.294;2022-11-20T02:43:02;98989.72;;;4.51;80.40
18819;BME280;9537;45.594;9.294;2022-11-20T02:44:05;98990.19;;;4.46;80.51
18819;BME280;9537;45.594;9.294;2022-11-20T02:45:07;98991.66;;;4.49;80.79
18819;BME280;9537;45.594;9.294;2022-11-20T02:46:09;98998.41;;;4.51;80.87
18819;BME280;9537;45.594;9.294;2022-11-20T02:47:10;98996.91;;;4.49;81.21
18819;BME280;9537;45.594;9.294;2022-11-20T02:48:12;98996.91;;;4.49;81.19
18819;BME280;9537;45.594;9.294;2022-11-20T02:49:13;98991.66;;;4.49;81.11
18819;BME280;9537;45.594;9.294;2022-11-20T02:50:17;98998.56;;;4.50;80.73
18819;BME280;9537;45.594;9.294;2022-11-20T02:51:18;98999.22;;;4.52;80.72
18819;BME280;9537;45.594;9.294;2022-11-20T02:52:20;98994.97;;;4.51;80.88
18819;BME280;9537;45.594;9.294;2022-11-20T02:53:21;98991.66;;;4.49;80.51
18819;BME280;9537;45.594;9.294;2022-11-20T02:54:23;98990.03;;;4.48;80.23
18819;BME280;9537;45.594;9.294;2022-11-20T02:55:26;98993.56;;;4.39;80.54
18819;BME280;9537;45.594;9.294;2022-11-20T02:56:27;98995.34;;;4.38;80.90
18819;BME280;9537;45.594;9.294;2022-11-20T02:57:29;98996.00;;;4.40;80.91
18819;BME280;9537;45.594;9.294;2022-11-20T02:58:30;98989.00;;;4.41;80.64
18819;BME280;9537;45.594;9.294;2022-11-20T02:59:31;98994.81;;;4.35;80.88
18819;BME280;9537;45.594;9.294;2022-11-20T03:00:33;98994.66;;;4.36;81.15
18819;BME280;9537;45.594;9.294;2022-11-20T03:01:36;98992.06;;;4.36;81.18
18819;BME280;9537;45.594;9.294;2022-11-20T03:02:38;98993.56;;;4.39;80.79
18819;BME280;9537;45.594;9.294;2022-11-20T03:03:40;98993.09;;;4.43;80.70
18819;BME280;9537;45.594;9.294;2022-11-20T03:04:42;98993.38;;;4.40;80.67
18819;BME280;9537;45.594;9.294;2022-11-20T03:05:44;98995.50;;;4.37;81.25
18819;BME280;9537;45.594;9.294;2022-11-20T03:06:45;98988.47;;;4.37;80.40
18819;BME280;9537;45.594;9.294;2022-11-20T03:07:46;98993.84;;;4.36;80.46
18819;BME280;9537;45.594;9.294;2022-11-20T03:08:48;98997.38;;;4.26;80.23
18819;BME280;9537;45.594;9.294;2022-11-20T03:09:50;98998.69;;;4.31;80.16
18819;BME280;9537;45.594;9.294;2022-11-20T03:10:53;98997.38;;;4.26;80.36
18819;BME280;9537;45.594;9.294;2022-11-20T03:11:55;99001.63;;;4.27;80.16
18819;BME280;9537;45.594;9.294;2022-11-20T03:12:56;98991.28;;;4.26;80.54
18819;BME280;9537;45.594;9.294;2022-11-20T03:14:01;99001.09;;;4.24;80.25
18819;BME280;9537;45.594;9.294;2022-11-20T03:15:03;98995.19;;;4.22;80.64
18819;BME280;9537;45.594;9.294;2022-11-20T03:16:10;99000.56;;;4.20;81.02
18819;BME280;9537;45.594;9.294;2022-11-20T03:17:12;98997.28;;;4.18;81.54
18819;BME280;9537;45.594;9.294;2022-11-20T03:18:13;98995.03;;;4.23;81.43
18819;BME280;9537;45.594;9.294;2022-11-20T03:19:15;98999.31;;;4.24;81.64
18819;BME280;9537;45.594;9.294;2022-11-20T03:20:17;98999.13;;;4.26;81.69
18819;BME280;9537;45.594;9.294;2022-11-20T03:21:18;98991.00;;;4.29;81.65
18819;BME280;9537;45.594;9.294;2022-11-20T03:22:20;98994.00;;;4.34;81.40
18819;BME280;9537;45.594;9.294;2022-11-20T03:23:20;99001.53;;;4.37;81.49
18819;BME280;9537;45.594;9.294;2022-11-20T03:24:23;99009.06;;;4.40;81.62
18819;BME280;9537;45.594;9.294;2022-11-20T03:25:24;98995.19;;;4.40;80.56
18819;BME280;9537;45.594;9.294;2022-11-20T03:26:27;99005.13;;;4.36;81.02
18819;BME280;9537;45.594;9.294;2022-11-20T03:27:32;99003.50;;;4.35;80.43
18819;BME280;9537;45.594;9.294;2022-11-20T03:28:34;99001.63;;;4.27;80.04
18819;BME280;9537;45.594;9.294;2022-11-20T03:29:35;98999.72;;;4.20;80.10
18819;BME280;9537;45.594;9.294;2022-11-20T03:30:37;99005.34;;;4.25;80.58
18819;BME280;9537;45.594;9.294;2022-11-20T03:31:40;99004.22;;;4.27;80.11
18819;BME280;9537;45.594;9.294;2022-11-20T03:32:42;99003.41;;;4.27;79.89
18819;BME280;9537;45.594;9.294;2022-11-20T03:33:43;99003.53;;;4.25;79.75
18819;BME280;9537;45.594;9.294;2022-11-20T03:34:45;99004.66;;;4.23;79.95
18819;BME280;9537;45.594;9.294;2022-11-20T03:35:46;98999.59;;;4.21;79.75
18819;BME280;9537;45.594;9.294;2022-11-20T03:36:48;99000.72;;;4.19;79.97
18819;BME280;9537;45.594;9.294;2022-11-20T03:37:49;98996.00;;;4.22;80.04
18819;BME280;9537;45.594;9.294;2022-11-20T03:38:53;98997.41;;;4.17;80.14
18819;BME280;9537;45.594;9.294;2022-11-20T03:39:54;98996.31;;;4.19;80.07
18819;BME280;9537;45.594;9.294;2022-11-20T03:40:58;98998.41;;;4.16;79.91
18819;BME280;9537;45.594;9.294;2022-11-20T03:42:01;99000.03;;;4.17;80.65
18819;BME280;9537;45.594;9.294;2022-11-20T03:43:23;99000.63;;;4.11;80.34
18819;BME280;9537;45.594;9.294;2022-11-20T03:44:24;98995.25;;;4.12;80.65
18819;BME280;9537;45.594;9.294;2022-11-20T03:45:26;98992.47;;;4.14;80.96
18819;BME280;9537;45.594;9.294;2022-11-20T03:46:28;98994.28;;;4.13;80.72
18819;BME280;9537;45.594;9.294;2022-11-20T03:47:30;98998.41;;;4.16;81.17
18819;BME280;9537;45.594;9.294;2022-11-20T03:48:31;98995.78;;;4.16;80.95
18819;BME280;9537;45.594;9.294;2022-11-20T03:49:33;98997.88;;;4.12;80.89
18819;BME280;9537;45.594;9.294;2022-11-20T03:50:34;98992.25;;;4.07;81.21
18819;BME280;9537;45.594;9.294;2022-11-20T03:51:36;98993.91;;;4.08;81.08
18819;BME280;9537;45.594;9.294;2022-11-20T03:52:37;99005.97;;;4.09;81.00
18819;BME280;9537;45.594;9.294;2022-11-20T03:53:40;99002.56;;;4.09;81.19
18819;BME280;9537;45.594;9.294;2022-11-20T03:54:41;99003.84;;;4.04;80.99
18819;BME280;9537;45.594;9.294;2022-11-20T03:55:43;99003.97;;;4.03;80.83
18819;BME280;9537;45.594;9.294;2022-11-20T03:56:44;99009.06;;;4.04;81.90
18819;BME280;9537;45.594;9.294;2022-11-20T03:57:47;99009.06;;;4.04;80.93
18819;BME280;9537;45.594;9.294;2022-11-20T03:58:48;99009.06;;;4.04;81.15
18819;BME280;9537;45.594;9.294;2022-11-20T03:59:50;99008.25;;;4.04;81.06
18819;BME280;9537;45.594;9.294;2022-11-20T04:00:51;99004.94;;;4.02;81.17
18819;BME280;9537;45.594;9.294;2022-11-20T04:01:53;99011.81;;;4.03;81.45
18819;BME280;9537;45.594;9.294;2022-11-20T04:02:57;99010.84;;;4.04;81.24
18819;BME280;9537;45.594;9.294;2022-11-20T04:03:59;99004.41;;;3.98;81.51
18819;BME280;9537;45.594;9.294;2022-11-20T04:05:01;99006.06;;;3.99;81.38
18819;BME280;9537;45.594;9.294;2022-11-20T04:06:04;99010.31;;;4.00;81.75
18819;BME280;9537;45.594;9.294;2022-11-20T04:07:05;99016.22;;;4.02;81.50
18819;BME280;9537;45.594;9.294;2022-11-20T04:08:08;99017.19;;;4.01;81.37
18819;BME280;9537;45.594;9.294;2022-11-20T04:09:08;99012.66;;;4.03;81.46
18819;BME280;9537;45.594;9.294;2022-11-20T04:10:11;99009.06;;;4.04;81.49
18819;BME280;9537;45.594;9.294;2022-11-20T04:11:13;99018.00;;;4.02;81.68
18819;BME280;9537;45.594;9.294;2022-11-20T04:12:16;99009.06;;;4.04;81.50
18819;BME280;9537;45.594;9.294;2022-11-20T04:13:18;99011.22;;;4.09;81.58
18819;BME280;9537;45.594;9.294;2022-11-20T04:14:20;99016.91;;;4.04;81.67
18819;BME280;9537;45.594;9.294;2022-11-20T04:15:21;99009.88;;;4.05;81.19
18819;BME280;9537;45.594;9.294;2022-11-20T04:16:24;99011.66;;;4.04;81.39
18819;BME280;9537;45.594;9.294;2022-11-20T04:17:26;99008.25;;;4.04;81.50
18819;BME280;9537;45.594;9.294;2022-11-20T04:18:28;99012.78;;;4.02;81.30
18819;BME280;9537;45.594;9.294;2022-11-20T04:19:29;99010.16;;;4.02;81.17
18819;BME280;9537;45.594;9.294;2022-11-20T04:20:31;99011.66;;;4.04;81.39
18819;BME280;9537;45.594;9.294;2022-11-20T04:21:32;99019.00;;;4.01;81.23
18819;BME280;9537;45.594;9.294;2022-11-20T04:22:34;99010.31;;;4.00;81.27
18819;BME280;9537;45.594;9.294;2022-11-20T04:23:36;99014.56;;;4.01;81.22
18819;BME280;9537;45.594;9.294;2022-11-20T04:24:38;99018.81;;;4.02;81.13
18819;BME280;9537;45.594;9.294;2022-11-20T04:25:39;99014.56;;;4.01;81.01
18819;BME280;9537;45.594;9.294;2022-11-20T04:26:41;99019.66;;;4.03;81.19
18819;BME280;9537;45.594;9.294;2022-11-20T04:27:42;99011.66;;;4.04;81.04
18819;BME280;9537;45.594;9.294;2022-11-20T04:28:45;99013.16;;;4.07;81.02
18819;BME280;9537;45.594;9.294;2022-11-20T04:29:46;99012.66;;;4.03;80.78
18819;BME280;9537;45.594;9.294;2022-11-20T04:30:48;99015.25;;;4.03;80.95
18819;BME280;9537;45.594;9.294;2022-11-20T04:31:51;99012.50;;;4.05;80.68
18819;BME280;9537;45.594;9.294;2022-11-20T04:32:54;99016.59;;;4.07;80.88
18819;BME280;9537;45.594;9.294;2022-11-20T04:33:55;99014.00;;;4.07;80.76
18819;BME280;9537;45.594;9.294;2022-11-20T04:35:00;99018.69;;;4.04;80.66
18819;BME280;9537;45.594;9.294;2022-11-20T04:36:03;99011.00;;;4.02;80.92
18819;BME280;9537;45.594;9.294;2022-11-20T04:37:05;99012.25;;;3.98;80.64
18819;BME280;9537;45.594;9.294;2022-11-20T04:38:06;99010.06;;;3.94;80.75
18819;BME280;9537;45.594;9.294;2022-11-20T04:39:11;99010.25;;;3.92;80.78
18819;BME280;9537;45.594;9.294;2022-11-20T04:40:13;99007.38;;;3.86;81.04
18819;BME280;9537;45.594;9.294;2022-11-20T04:41:17;99015.38;;;3.84;81.31
18819;BME280;9537;45.594;9.294;2022-11-20T04:42:18;99018.09;;;3.82;81.62
18819;BME280;9537;45.594;9.294;2022-11-20T04:43:33;99025.41;;;3.79;82.03
18819;BME280;9537;45.594;9.294;2022-11-20T04:44:35;99025.13;;;3.82;82.08
18819;BME280;9537;45.594;9.294;2022-11-20T04:45:37;99021.53;;;3.83;81.80
18819;BME280;9537;45.594;9.294;2022-11-20T04:46:40;99024.00;;;3.84;81.59
18819;BME280;9537;45.594;9.294;2022-11-20T04:47:42;99028.56;;;3.82;81.99
18819;BME280;9537;45.594;9.294;2022-11-20T04:48:43;99024.00;;;3.84;81.39
18819;BME280;9537;45.594;9.294;2022-11-20T04:49:45;99029.66;;;3.80;81.43
18819;BME280;9537;45.594;9.294;2022-11-20T04:50:46;99027.06;;;3.80;81.44
18819;BME280;9537;45.594;9.294;2022-11-20T04:51:49;99025.94;;;3.82;81.61
18819;BME280;9537;45.594;9.294;2022-11-20T04:52:50;99024.00;;;3.84;81.56
18819;BME280;9537;45.594;9.294;2022-11-20T04:53:51;99031.97;;;3.83;82.26
18819;BME280;9537;45.594;9.294;2022-11-20T04:54:52;99031.97;;;3.83;82.12
18819;BME280;9537;45.594;9.294;2022-11-20T04:55:59;99027.44;;;3.85;82.20
18819;BME280;9537;45.594;9.294;2022-11-20T04:57:00;99024.53;;;3.88;82.32
18819;BME280;9537;45.594;9.294;2022-11-20T04:58:02;99025.91;;;3.92;81.73
18819;BME280;9537;45.594;9.294;2022-11-20T04:59:03;99026.28;;;3.97;81.91
18819;BME280;9537;45.594;9.294;2022-11-20T05:00:08;99026.97;;;3.99;81.79
18819;BME280;9537;45.594;9.294;2022-11-20T05:01:11;99029.56;;;3.99;81.88
18819;BME280;9537;45.594;9.294;2022-11-20T05:02:14;99021.72;;;3.99;81.05
18819;BME280;9537;45.594;9.294;2022-11-20T05:03:15;99021.50;;;3.93;80.87
18819;BME280;9537;45.594;9.294;2022-11-20T05:04:17;99028.53;;;3.92;80.59
18819;BME280;9537;45.594;9.294;2022-11-20T05:05:18;99027.97;;;3.89;80.77
18819;BME280;9537;45.594;9.294;2022-11-20T05:06:22;99023.19;;;3.84;81.11
18819;BME280;9537;45.594;9.294;2022-11-20T05:07:23;99032.97;;;3.82;81.26
18819;BME280;9537;45.594;9.294;2022-11-20T05:08:25;99029.25;;;3.84;80.97
18819;BME280;9537;45.594;9.294;2022-11-20T05:09:26;99029.25;;;3.84;80.85
18819;BME280;9537;45.594;9.294;2022-11-20T05:10:28;99034.47;;;3.84;81.10
18819;BME280;9537;45.594;9.294;2022-11-20T05:11:29;99029.25;;;3.84;81.35
18819;BME280;9537;45.594;9.294;2022-11-20T05:12:33;99038.72;;;3.86;81.24
18819;BME280;9537;45.594;9.294;2022-11-20T05:13:34;99031.69;;;3.86;81.77
18819;BME280;9537;45.594;9.294;2022-11-20T05:14:36;99037.91;;;3.85;81.61
18819;BME280;9537;45.594;9.294;2022-11-20T05:15:39;99032.97;;;3.82;81.46
18819;BME280;9537;45.594;9.294;2022-11-20T05:16:40;99042.72;;;3.80;81.56
18819;BME280;9537;45.594;9.294;2022-11-20T05:17:47;99036.84;;;3.78;81.55
18819;BME280;9537;45.594;9.294;2022-11-20T05:18:49;99037.09;;;3.75;81.53
18819;BME280;9537;45.594;9.294;2022-11-20T05:19:50;99040.56;;;3.75;81.11
18819;BME280;9537;45.594;9.294;2022-11-20T05:20:55;99042.63;;;3.72;81.17
18819;BME280;9537;45.594;9.294;2022-11-20T05:21:56;99042.63;;;3.72;81.58
18819;BME280;9537;45.594;9.294;2022-11-20T05:22:58;99048.97;;;3.69;81.56
18819;BME280;9537;45.594;9.294;2022-11-20T05:23:59;99047.31;;;3.68;81.48
18819;BME280;9537;45.594;9.294;2022-11-20T05:25:00;99048.13;;;3.69;81.48
18819;BME280;9537;45.594;9.294;2022-11-20T05:26:02;99053.22;;;3.70;81.99
18819;BME280;9537;45.594;9.294;2022-11-20T05:27:05;99044.41;;;3.71;81.81
18819;BME280;9537;45.594;9.294;2022-11-20T05:28:06;99050.84;;;3.77;81.78
18819;BME280;9537;45.594;9.294;2022-11-20T05:29:10;99048.41;;;3.75;82.01
18819;BME280;9537;45.594;9.294;2022-11-20T05:30:13;99046.44;;;3.77;82.02
18819;BME280;9537;45.594;9.294;2022-11-20T05:31:17;99054.84;;;3.81;81.99
18819;BME280;9537;45.594;9.294;2022-11-20T05:32:19;99054.84;;;3.81;81.92
18819;BME280;9537;45.594;9.294;2022-11-20T05:33:21;99052.06;;;3.82;81.86
18819;BME280;9537;45.594;9.294;2022-11-20T05:34:22;99054.53;;;3.84;81.41
18819;BME280;9537;45.594;9.294;2022-11-20T05:35:23;99052.88;;;3.83;81.32
18819;BME280;9537;45.594;9.294;2022-11-20T05:36:25;99056.25;;;3.75;81.56
18819;BME280;9537;45.594;9.294;2022-11-20T05:37:26;99054.44;;;3.76;81.71
18819;BME280;9537;45.594;9.294;2022-11-20T05:38:28;99056.25;;;3.75;81.70
18819;BME280;9537;45.594;9.294;2022-11-20T05:39:29;99056.66;;;3.71;81.77
18819;BME280;9537;45.594;9.294;2022-11-20T05:40:31;99058.28;;;3.72;81.89
18819;BME280;9537;45.594;9.294;2022-11-20T05:41:32;99053.06;;;3.72;82.19
18819;BME280;9537;45.594;9.294;2022-11-20T05:42:34;99057.47;;;3.71;82.33